createdAt,value
2024-02-11T00:01:15.311Z,15.07
2024-02-11T00:03:43.155Z,15.70
2024-02-11T00:06:12.287Z,16.65
2024-02-11T00:08:40.867Z,13.00
2024-02-11T00:11:10.419Z,13.75
2024-02-11T00:13:37.919Z,12.30
2024-02-11T00:16:11.286Z,14.27
2024-02-11T00:18:39.384Z,15.02
2024-02-11T00:21:06.850Z,19.13
2024-02-11T00:23:36.217Z,13.50
2024-02-11T00:26:04.239Z,12.35
2024-02-11T00:28:31.643Z,13.63
2024-02-11T00:30:58.709Z,12.25
2024-02-11T00:33:26.156Z,13.60
2024-02-11T00:35:53.627Z,13.30
2024-02-11T00:38:20.970Z,16.13
2024-02-11T00:40:48.656Z,14.23
2024-02-11T00:43:16.456Z,10.98
2024-02-11T00:45:43.702Z,14.35
2024-02-11T00:48:12.048Z,11.05
2024-02-11T00:50:39.418Z,11.18
2024-02-11T00:53:06.734Z,17.38
2024-02-11T00:55:37.612Z,18.50
2024-02-11T00:58:05.253Z,18.35
2024-02-11T01:00:34.753Z,14.50
2024-02-11T01:03:02.369Z,14.88
2024-02-11T01:05:31.018Z,12.65
2024-02-11T01:07:58.863Z,13.68
2024-02-11T01:10:33.000Z,17.77
2024-02-11T01:13:00.565Z,15.85
2024-02-11T01:15:28.073Z,12.02
2024-02-11T01:17:55.864Z,8.57
2024-02-11T01:20:23.121Z,13.52
2024-02-11T01:22:50.391Z,17.20
2024-02-11T01:25:21.511Z,12.60
2024-02-11T01:27:49.775Z,11.35
2024-02-11T01:30:19.264Z,14.93
2024-02-11T01:32:47.070Z,13.18
2024-02-11T01:35:14.520Z,13.50
2024-02-11T01:37:41.993Z,11.88
2024-02-11T01:40:18.874Z,13.50
2024-02-11T01:42:47.827Z,14.52
2024-02-11T01:45:16.819Z,16.45
2024-02-11T01:47:47.882Z,12.18
2024-02-11T01:50:19.201Z,17.25
2024-02-11T01:52:49.144Z,13.13
2024-02-11T01:55:19.880Z,17.08
2024-02-11T01:57:48.827Z,12.38
2024-02-11T02:00:17.684Z,11.32
2024-02-11T02:02:46.603Z,10.43
2024-02-11T02:05:14.268Z,14.40
2024-02-11T02:07:41.846Z,19.48
2024-02-11T02:10:10.034Z,8.48
2024-02-11T02:12:38.728Z,14.80
2024-02-11T02:15:09.584Z,11.30
2024-02-11T02:17:37.258Z,13.30
2024-02-11T02:20:05.476Z,12.95
2024-02-11T02:22:35.095Z,10.80
2024-02-11T02:25:02.352Z,15.70
2024-02-11T02:27:29.512Z,14.82
2024-02-11T02:29:56.656Z,14.70
2024-02-11T02:32:24.004Z,12.57
2024-02-11T02:34:51.993Z,15.15
2024-02-11T02:37:19.275Z,15.02
2024-02-11T02:39:46.663Z,17.10
2024-02-11T02:42:13.947Z,15.02
2024-02-11T02:44:41.191Z,16.30
2024-02-11T02:47:08.697Z,17.80
2024-02-11T02:49:36.003Z,19.15
2024-02-11T02:52:04.052Z,14.15
2024-02-11T02:54:31.368Z,15.45
2024-02-11T02:57:00.000Z,13.48
2024-02-11T02:59:27.762Z,13.32
2024-02-11T03:02:02.949Z,13.98
2024-02-11T03:04:30.448Z,16.98
2024-02-11T03:06:57.758Z,13.10
2024-02-11T03:09:25.762Z,15.18
2024-02-11T03:11:53.446Z,12.75
2024-02-11T03:14:21.620Z,13.90
2024-02-11T03:16:49.175Z,13.10
2024-02-11T03:19:17.050Z,11.70
2024-02-11T03:21:53.718Z,14.55
2024-02-11T03:24:22.727Z,17.92
2024-02-11T03:26:50.073Z,17.08
2024-02-11T03:29:21.115Z,13.98
2024-02-11T03:31:49.205Z,16.75
2024-02-11T03:34:16.748Z,14.93
2024-02-11T03:36:44.489Z,14.32
2024-02-11T03:39:12.011Z,14.70
2024-02-11T03:41:39.464Z,16.80
2024-02-11T03:44:06.745Z,14.45
2024-02-11T03:46:34.112Z,15.35
2024-02-11T03:49:05.120Z,14.35
2024-02-11T03:51:33.169Z,13.90
2024-02-11T03:54:02.678Z,18.60
2024-02-11T03:56:30.322Z,12.25
2024-02-11T03:58:57.703Z,15.10
2024-02-11T04:01:25.440Z,18.52
2024-02-11T04:03:52.834Z,16.40
2024-02-11T04:06:22.450Z,16.77
2024-02-11T04:08:51.311Z,15.55
2024-02-11T04:11:19.528Z,16.40
2024-02-11T04:13:47.139Z,14.38
2024-02-11T04:16:17.533Z,15.77
2024-02-11T04:18:49.435Z,16.38
2024-02-11T04:21:21.368Z,14.02
2024-02-11T04:23:50.382Z,21.83
2024-02-11T04:26:19.150Z,16.13
2024-02-11T04:28:48.668Z,18.23
2024-02-11T04:31:18.412Z,17.75
2024-02-11T04:33:47.853Z,16.73
2024-02-11T04:36:18.032Z,17.33
2024-02-11T04:38:46.554Z,16.63
2024-02-11T04:41:15.584Z,17.70
2024-02-11T04:43:45.911Z,19.25
2024-02-11T04:46:13.472Z,14.98
2024-02-11T04:48:40.611Z,16.10
2024-02-11T04:51:08.783Z,14.68
2024-02-11T04:53:39.200Z,15.60
2024-02-11T04:56:06.981Z,12.88
2024-02-11T04:58:35.807Z,13.05
2024-02-11T05:01:03.441Z,17.17
2024-02-11T05:03:32.023Z,16.05
2024-02-11T05:06:01.113Z,15.35
2024-02-11T05:08:29.314Z,13.77
2024-02-11T05:10:57.661Z,16.25
2024-02-11T05:13:28.762Z,15.65
2024-02-11T05:16:00.613Z,12.18
2024-02-11T05:18:31.225Z,16.35
2024-02-11T05:20:59.056Z,16.50
2024-02-11T05:23:27.050Z,16.63
2024-02-11T05:25:54.685Z,10.27
2024-02-11T05:28:21.824Z,16.55
2024-02-11T05:30:51.373Z,18.73
2024-02-11T05:33:21.313Z,14.68
2024-02-11T05:35:50.981Z,13.77
2024-02-11T05:38:22.078Z,14.18
2024-02-11T05:40:52.874Z,12.50
2024-02-11T05:43:20.912Z,14.90
2024-02-11T05:45:48.696Z,14.23
2024-02-11T05:48:16.499Z,13.40
2024-02-11T05:50:47.220Z,14.73
2024-02-11T05:53:14.929Z,16.50
2024-02-11T05:55:42.488Z,17.45
2024-02-11T05:58:09.955Z,15.60
2024-02-11T06:00:39.000Z,16.20
2024-02-11T06:03:06.330Z,17.50
2024-02-11T06:05:34.042Z,16.38
2024-02-11T06:08:02.750Z,14.68
2024-02-11T06:10:32.624Z,16.67
2024-02-11T06:13:00.324Z,15.02
2024-02-11T06:15:29.649Z,16.27
2024-02-11T06:18:02.860Z,20.50
2024-02-11T06:20:31.566Z,19.02
2024-02-11T06:22:59.174Z,16.08
2024-02-11T06:25:26.757Z,15.98
2024-02-11T06:27:55.924Z,18.95
2024-02-11T06:30:23.320Z,16.15
2024-02-11T06:32:52.826Z,16.95
2024-02-11T06:35:21.713Z,17.20
2024-02-11T06:37:51.438Z,16.95
2024-02-11T06:40:24.739Z,15.70
2024-02-11T06:42:53.225Z,14.93
2024-02-11T06:45:21.365Z,19.23
2024-02-11T06:47:49.602Z,14.82
2024-02-11T06:50:18.115Z,17.83
2024-02-11T06:52:48.912Z,19.23
2024-02-11T06:55:19.715Z,15.30
2024-02-11T06:57:47.586Z,16.13
2024-02-11T07:00:17.238Z,15.27
2024-02-11T07:02:49.448Z,15.23
2024-02-11T07:05:18.068Z,18.52
2024-02-11T07:07:46.465Z,16.77
2024-02-11T07:10:15.590Z,14.82
2024-02-11T07:12:46.427Z,16.83
2024-02-11T07:15:16.077Z,16.42
2024-02-11T07:17:44.869Z,15.65
2024-02-11T07:20:16.404Z,15.65
2024-02-11T07:22:45.481Z,13.73
2024-02-11T07:25:15.442Z,17.23
2024-02-11T07:27:42.916Z,13.63
2024-02-11T07:30:13.296Z,16.63
2024-02-11T07:32:44.525Z,12.65
2024-02-11T07:35:14.387Z,13.45
2024-02-11T07:37:42.894Z,13.45
2024-02-11T07:40:13.669Z,13.45
2024-02-11T07:42:42.319Z,13.10
2024-02-11T07:45:16.431Z,14.77
2024-02-11T07:47:47.603Z,12.48
2024-02-11T07:50:15.884Z,15.02
2024-02-11T07:52:44.482Z,13.00
2024-02-11T07:55:13.531Z,13.40
2024-02-11T07:57:41.263Z,14.40
2024-02-11T08:00:08.861Z,11.98
2024-02-11T08:02:36.487Z,15.55
2024-02-11T08:05:04.116Z,12.05
2024-02-11T08:07:31.453Z,16.38
2024-02-11T08:09:58.555Z,12.32
2024-02-11T08:12:26.012Z,13.00
2024-02-11T08:14:54.140Z,13.18
2024-02-11T08:17:21.495Z,11.77
2024-02-11T08:19:48.961Z,12.20
2024-02-11T08:22:16.693Z,14.20
2024-02-11T08:24:43.944Z,14.60
2024-02-11T08:27:11.516Z,14.30
2024-02-11T08:29:38.715Z,15.63
2024-02-11T08:32:06.745Z,13.30
2024-02-11T08:34:33.934Z,13.95
2024-02-11T08:37:01.124Z,16.52
2024-02-11T08:39:28.614Z,14.07
2024-02-11T08:41:56.243Z,14.82
2024-02-11T08:44:23.401Z,14.63
2024-02-11T08:46:50.933Z,14.40
2024-02-11T08:49:18.368Z,15.57
2024-02-11T08:51:46.796Z,14.10
2024-02-11T08:54:14.301Z,14.88
2024-02-11T08:56:41.629Z,13.73
2024-02-11T08:59:09.932Z,13.20
2024-02-11T09:01:37.944Z,13.20
2024-02-11T09:04:06.074Z,12.38
2024-02-11T09:06:33.455Z,12.70
2024-02-11T09:09:00.603Z,13.52
2024-02-11T09:11:27.959Z,14.05
2024-02-11T09:13:55.453Z,14.52
2024-02-11T09:16:24.926Z,12.85
2024-02-11T09:18:52.193Z,13.38
2024-02-11T09:21:19.383Z,13.85
2024-02-11T09:23:46.737Z,12.85
2024-02-11T09:26:16.336Z,14.55
2024-02-11T09:28:45.487Z,14.55
2024-02-11T09:31:12.685Z,12.13
2024-02-11T09:33:40.008Z,14.10
2024-02-11T09:36:07.730Z,14.93
2024-02-11T09:38:34.916Z,12.65
2024-02-11T09:41:04.786Z,13.32
2024-02-11T09:43:32.784Z,13.82
2024-02-11T09:46:01.529Z,12.85
2024-02-11T09:48:30.795Z,14.52
2024-02-11T09:51:00.762Z,14.00
2024-02-11T09:53:29.526Z,14.32
2024-02-11T09:55:56.952Z,13.52
2024-02-11T09:58:27.879Z,15.02
2024-02-11T10:00:56.678Z,12.82
2024-02-11T10:03:28.661Z,13.43
2024-02-11T10:05:59.755Z,13.95
2024-02-11T10:08:27.507Z,14.57
2024-02-11T10:10:55.285Z,17.98
2024-02-11T10:13:24.230Z,19.35
2024-02-11T10:15:51.489Z,19.73
2024-02-11T10:18:20.124Z,16.92
2024-02-11T10:20:48.432Z,15.63
2024-02-11T10:23:16.261Z,14.65
2024-02-11T10:25:46.556Z,14.25
2024-02-11T10:28:14.029Z,13.13
2024-02-11T10:30:41.512Z,15.48
2024-02-11T10:33:11.403Z,13.68
2024-02-11T10:35:38.923Z,12.90
2024-02-11T10:38:08.329Z,12.88
2024-02-11T10:40:39.786Z,14.07
2024-02-11T10:43:07.617Z,16.27
2024-02-11T10:45:36.459Z,12.35
2024-02-11T10:48:05.547Z,13.40
2024-02-11T10:50:34.522Z,12.40
2024-02-11T10:53:05.009Z,13.45
2024-02-11T10:55:42.470Z,14.88
2024-02-11T10:58:13.601Z,11.48
2024-02-11T11:00:43.512Z,12.23
2024-02-11T11:03:12.535Z,13.52
2024-02-11T11:05:43.681Z,16.00
2024-02-11T11:08:13.981Z,15.15
2024-02-11T11:10:41.456Z,11.93
2024-02-11T11:13:10.697Z,11.27
2024-02-11T11:15:39.237Z,12.77
2024-02-11T11:18:09.755Z,11.85
2024-02-11T11:20:38.467Z,10.25
2024-02-11T11:23:07.747Z,10.55
2024-02-11T11:25:36.034Z,9.55
2024-02-11T11:28:12.146Z,8.60
2024-02-11T11:30:39.453Z,10.80
2024-02-11T11:33:07.073Z,8.85
2024-02-11T11:35:36.120Z,8.65
2024-02-11T11:38:04.809Z,7.88
2024-02-11T11:40:37.536Z,9.05
2024-02-11T11:43:25.410Z,7.40
2024-02-11T11:45:58.986Z,9.07
2024-02-11T11:48:28.592Z,8.37
2024-02-11T11:50:57.379Z,7.97
2024-02-11T11:53:25.311Z,9.18
2024-02-11T11:55:53.882Z,7.72
2024-02-11T11:58:23.078Z,8.10
2024-02-11T12:01:02.999Z,6.88
2024-02-11T12:03:31.986Z,7.90
2024-02-11T12:05:59.886Z,8.25
2024-02-11T12:08:29.124Z,6.85
2024-02-11T12:11:01.743Z,9.30
2024-02-11T12:13:33.389Z,7.18
2024-02-11T12:16:04.117Z,7.35
2024-02-11T12:18:32.069Z,8.80
2024-02-11T12:20:59.569Z,9.43
2024-02-11T12:23:26.879Z,7.28
2024-02-11T12:25:55.933Z,6.90
2024-02-11T12:28:32.439Z,7.47
2024-02-11T12:31:16.790Z,8.43
2024-02-11T12:33:48.487Z,6.28
2024-02-11T12:36:21.368Z,7.45
2024-02-11T12:38:49.329Z,5.85
2024-02-11T12:41:17.242Z,6.25
2024-02-11T12:43:45.967Z,7.47
2024-02-11T12:46:13.221Z,6.60
2024-02-11T12:48:42.643Z,7.70
2024-02-11T12:51:13.174Z,7.53
2024-02-11T12:53:41.463Z,7.18
2024-02-11T12:56:12.618Z,7.53
2024-02-11T12:58:41.754Z,8.05
2024-02-11T13:01:12.227Z,7.72
2024-02-11T13:03:40.689Z,6.80
2024-02-11T13:06:08.847Z,5.38
2024-02-11T13:08:37.141Z,6.78
2024-02-11T13:11:07.480Z,6.28
2024-02-11T13:13:35.885Z,5.38
2024-02-11T13:16:07.375Z,5.32
2024-02-11T13:18:36.570Z,5.15
2024-02-11T13:21:05.256Z,6.70
2024-02-11T13:23:32.752Z,6.03
2024-02-11T13:26:01.592Z,6.03
2024-02-11T13:28:28.860Z,7.32
2024-02-11T13:31:06.946Z,6.00
2024-02-11T13:33:42.247Z,5.25
2024-02-11T13:36:11.924Z,5.82
2024-02-11T13:38:39.310Z,5.97
2024-02-11T13:41:06.878Z,5.13
2024-02-11T13:43:34.609Z,4.78
2024-02-11T13:46:02.232Z,6.28
2024-02-11T13:48:29.491Z,5.22
2024-02-11T13:50:56.809Z,5.53
2024-02-11T13:53:24.439Z,5.13
2024-02-11T13:55:51.848Z,5.25
2024-02-11T13:58:19.773Z,8.60
2024-02-11T14:00:47.216Z,6.32
2024-02-11T14:03:14.922Z,5.53
2024-02-11T14:05:42.672Z,5.78
2024-02-11T14:08:10.452Z,4.82
2024-02-11T14:10:39.657Z,5.85
2024-02-11T14:13:06.963Z,5.75
2024-02-11T14:15:36.870Z,4.70
2024-02-11T14:18:08.445Z,5.47
2024-02-11T14:20:36.323Z,6.70
2024-02-11T14:23:03.722Z,5.40
2024-02-11T14:25:31.313Z,6.32
2024-02-11T14:27:58.581Z,4.82
2024-02-11T14:30:27.954Z,4.88
2024-02-11T14:32:57.070Z,6.03
2024-02-11T14:35:26.362Z,3.97
2024-02-11T14:37:54.187Z,5.22
2024-02-11T14:40:23.225Z,4.30
2024-02-11T14:42:50.677Z,5.57
2024-02-11T14:45:18.143Z,3.88
2024-02-11T14:47:45.927Z,4.07
2024-02-11T14:50:13.770Z,4.03
2024-02-11T14:52:41.470Z,4.55
2024-02-11T14:55:08.890Z,4.72
2024-02-11T14:57:36.932Z,3.70
2024-02-11T15:00:10.980Z,4.25
2024-02-11T15:02:39.886Z,4.88
2024-02-11T15:05:10.624Z,5.63
2024-02-11T15:07:38.645Z,4.05
2024-02-11T15:10:06.604Z,4.35
2024-02-11T15:12:34.039Z,5.35
2024-02-11T15:15:02.423Z,5.75
2024-02-11T15:17:30.602Z,4.40
2024-02-11T15:19:59.319Z,4.82
2024-02-11T15:22:27.007Z,6.25
2024-02-11T15:24:54.425Z,3.55
2024-02-11T15:27:21.957Z,5.00
2024-02-11T15:29:49.288Z,3.20
2024-02-11T15:32:16.694Z,3.70
2024-02-11T15:34:44.392Z,4.03
2024-02-11T15:37:11.859Z,4.03
2024-02-11T15:39:41.212Z,8.60
2024-02-11T15:42:10.038Z,4.57
2024-02-11T15:44:39.568Z,5.38
2024-02-11T15:47:08.642Z,3.70
2024-02-11T15:49:37.708Z,3.00
2024-02-11T15:52:07.387Z,3.75
2024-02-11T15:54:34.793Z,5.32
2024-02-11T15:57:02.360Z,6.38
2024-02-11T15:59:29.829Z,7.80
2024-02-11T16:01:57.283Z,5.65
2024-02-11T16:04:26.378Z,4.82
2024-02-11T16:06:55.602Z,3.80
2024-02-11T16:09:23.175Z,6.20
2024-02-11T16:11:50.980Z,6.30
2024-02-11T16:14:18.547Z,6.97
2024-02-11T16:16:46.677Z,8.45
2024-02-11T16:19:13.921Z,7.30
2024-02-11T16:21:41.436Z,7.90
2024-02-11T16:24:11.282Z,7.63
2024-02-11T16:26:42.051Z,5.68
2024-02-11T16:29:09.229Z,6.05
2024-02-11T16:31:41.571Z,4.57
2024-02-11T16:34:12.321Z,6.38
2024-02-11T16:36:41.673Z,3.70
2024-02-11T16:39:10.440Z,3.78
2024-02-11T16:41:39.394Z,3.50
2024-02-11T16:44:08.768Z,3.38
2024-02-11T16:46:36.824Z,2.92
2024-02-11T16:49:07.001Z,3.83
2024-02-11T16:51:34.431Z,5.00
2024-02-11T16:54:01.761Z,4.38
2024-02-11T16:56:29.298Z,5.65
2024-02-11T16:58:56.755Z,7.28
2024-02-11T17:01:24.330Z,5.43
2024-02-11T17:03:51.835Z,6.75
2024-02-11T17:06:19.273Z,5.10
2024-02-11T17:08:46.610Z,6.47
2024-02-11T17:11:16.963Z,4.53
2024-02-11T17:13:45.724Z,4.38
2024-02-11T17:16:13.064Z,4.97
2024-02-11T17:18:40.594Z,3.80
2024-02-11T17:21:12.657Z,3.58
2024-02-11T17:23:41.865Z,6.00
2024-02-11T17:26:09.757Z,6.82
2024-02-11T17:28:37.575Z,9.13
2024-02-11T17:31:05.664Z,9.35
2024-02-11T17:33:33.283Z,7.45
2024-02-11T17:36:01.946Z,6.00
2024-02-11T17:38:30.517Z,3.92
2024-02-11T17:40:59.175Z,3.53
2024-02-11T17:43:27.269Z,4.10
2024-02-11T17:45:54.662Z,5.07
2024-02-11T17:48:21.791Z,5.60
2024-02-11T17:50:52.994Z,9.73
2024-02-11T17:53:22.045Z,6.70
2024-02-11T17:55:53.316Z,7.72
2024-02-11T17:58:20.630Z,8.77
2024-02-11T18:00:56.630Z,5.55
2024-02-11T18:03:28.260Z,5.60
2024-02-11T18:05:56.416Z,5.90
2024-02-11T18:08:24.521Z,4.90
2024-02-11T18:10:52.073Z,5.32
2024-02-11T18:13:21.188Z,5.30
2024-02-11T18:15:50.087Z,7.75
2024-02-11T18:18:17.228Z,11.95
2024-02-11T18:20:44.971Z,10.90
2024-02-11T18:23:12.445Z,11.02
2024-02-11T18:25:54.945Z,12.30
2024-02-11T18:28:28.879Z,11.77
2024-02-11T18:30:56.146Z,10.48
2024-02-11T18:33:23.335Z,8.60
2024-02-11T18:35:50.790Z,10.80
2024-02-11T18:38:20.085Z,11.65
2024-02-11T18:40:47.740Z,12.15
2024-02-11T18:43:16.020Z,12.48
2024-02-11T18:45:44.444Z,11.25
2024-02-11T18:48:13.164Z,13.07
2024-02-11T18:50:40.456Z,10.00
2024-02-11T18:53:08.011Z,12.50
2024-02-11T18:55:39.580Z,10.90
2024-02-11T18:58:07.773Z,15.18
2024-02-11T19:00:35.455Z,15.43
2024-02-11T19:03:03.502Z,13.50
2024-02-11T19:05:33.506Z,10.88
2024-02-11T19:08:02.082Z,12.13
2024-02-11T19:10:30.737Z,12.35
2024-02-11T19:12:58.084Z,14.05
2024-02-11T19:15:25.338Z,12.23
2024-02-11T19:17:52.800Z,11.32
2024-02-11T19:20:20.937Z,11.57
2024-02-11T19:22:48.934Z,11.32
2024-02-11T19:25:16.585Z,9.68
2024-02-11T19:27:44.234Z,9.68
2024-02-11T19:30:11.498Z,7.70
2024-02-11T19:32:42.171Z,6.70
2024-02-11T19:35:10.223Z,8.38
2024-02-11T19:37:39.873Z,8.55
2024-02-11T19:40:12.193Z,7.43
2024-02-11T19:42:41.795Z,11.40
2024-02-11T19:45:09.756Z,9.65
2024-02-11T19:47:37.835Z,13.00
2024-02-11T19:50:06.244Z,11.35
2024-02-11T19:52:34.650Z,8.80
2024-02-11T19:55:03.560Z,9.88
2024-02-11T19:57:32.073Z,8.13
2024-02-11T19:59:59.960Z,9.88
2024-02-11T20:02:27.202Z,8.95
2024-02-11T20:04:55.917Z,8.48
2024-02-11T20:07:24.664Z,8.98
2024-02-11T20:09:51.992Z,8.13
2024-02-11T20:12:21.926Z,15.45
2024-02-11T20:14:49.778Z,9.25
2024-02-11T20:17:19.415Z,8.82
2024-02-11T20:19:49.567Z,9.80
2024-02-11T20:22:17.040Z,11.38
2024-02-11T20:24:44.844Z,14.40
2024-02-11T20:27:12.580Z,13.05
2024-02-11T20:29:40.493Z,11.63
2024-02-11T20:32:09.119Z,10.60
2024-02-11T20:34:39.157Z,8.75
2024-02-11T20:37:06.469Z,10.05
2024-02-11T20:39:34.314Z,11.77
2024-02-11T20:42:01.548Z,11.10
2024-02-11T20:44:28.841Z,8.10
2024-02-11T20:46:58.036Z,9.70
2024-02-11T20:49:26.427Z,7.57
2024-02-11T20:51:53.935Z,9.63
2024-02-11T20:54:21.218Z,9.40
2024-02-11T20:56:49.585Z,8.20
2024-02-11T20:59:18.103Z,8.80
2024-02-11T21:01:45.290Z,9.20
2024-02-11T21:04:12.857Z,9.05
2024-02-11T21:06:43.074Z,10.35
2024-02-11T21:09:12.809Z,8.25
2024-02-11T21:11:40.378Z,6.47
2024-02-11T21:14:10.313Z,6.22
2024-02-11T21:16:40.159Z,5.72
2024-02-11T21:19:11.821Z,7.90
2024-02-11T21:21:46.611Z,6.22
2024-02-11T21:24:14.097Z,7.90
2024-02-11T21:26:42.483Z,6.03
2024-02-11T21:29:09.851Z,6.15
2024-02-11T21:31:38.917Z,8.35
2024-02-11T21:34:07.628Z,8.20
2024-02-11T21:36:34.967Z,9.07
2024-02-11T21:39:02.626Z,11.05
2024-02-11T21:41:29.821Z,7.03
2024-02-11T21:43:57.470Z,9.30
2024-02-11T21:46:24.767Z,10.15
2024-02-11T21:49:01.438Z,10.40
2024-02-11T21:51:29.660Z,8.20
2024-02-11T21:53:56.952Z,10.18
2024-02-11T21:56:24.141Z,9.98
2024-02-11T21:58:51.465Z,8.77
2024-02-11T22:01:19.122Z,7.80
2024-02-11T22:03:47.802Z,8.10
2024-02-11T22:06:15.250Z,8.90
2024-02-11T22:08:42.597Z,10.98
2024-02-11T22:11:10.213Z,8.80
2024-02-11T22:13:37.463Z,6.53
2024-02-11T22:16:06.707Z,7.82
2024-02-11T22:18:34.165Z,7.03
2024-02-11T22:21:01.407Z,6.90
2024-02-11T22:23:28.700Z,7.72
2024-02-11T22:25:55.922Z,7.03
2024-02-11T22:28:23.929Z,7.10
2024-02-11T22:30:51.229Z,6.88
2024-02-11T22:33:19.031Z,6.80
2024-02-11T22:35:46.700Z,8.73
2024-02-11T22:38:14.207Z,9.02
2024-02-11T22:40:41.400Z,7.00
2024-02-11T22:43:09.881Z,5.38
2024-02-11T22:45:37.142Z,5.82
2024-02-11T22:48:05.583Z,6.93
2024-02-11T22:50:33.347Z,6.57
2024-02-11T22:53:00.721Z,6.03
2024-02-11T22:55:28.065Z,5.53
2024-02-11T22:57:55.500Z,8.35
2024-02-11T23:00:38.809Z,6.78
2024-02-11T23:03:08.292Z,10.13
2024-02-11T23:05:39.623Z,4.50
2024-02-11T23:08:11.311Z,5.97
2024-02-11T23:10:40.087Z,5.80
2024-02-11T23:13:07.474Z,5.32
2024-02-11T23:15:35.590Z,6.93
2024-02-11T23:18:04.914Z,9.88
2024-02-11T23:20:34.855Z,6.03
2024-02-11T23:23:02.467Z,6.13
2024-02-11T23:25:29.771Z,5.38
2024-02-11T23:27:56.982Z,6.85
2024-02-11T23:30:25.992Z,6.80
2024-02-11T23:32:54.101Z,6.30
2024-02-11T23:35:21.511Z,4.45
2024-02-11T23:37:51.398Z,6.57
2024-02-11T23:40:18.723Z,4.40
2024-02-11T23:42:45.956Z,3.60
2024-02-11T23:45:16.338Z,4.43
2024-02-11T23:47:44.037Z,4.05
2024-02-11T23:50:16.270Z,5.00
2024-02-11T23:52:44.164Z,3.72
2024-02-11T23:55:13.388Z,7.43
2024-02-11T23:57:42.179Z,3.65
